Time;durP1;ratioP1;P1;durP2;ratioP2;P2;SDS_P1;SDS_P2;PMS_P1;PMS_P2;Temp;Humidity;BMP_temperature;BMP_pressure;BME280_temperature;BME280_humidity;BME280_pressure;Samples;Min_cycle;Max_cycle;Signal;HPM_P1;HPM_P2
2023/04/09 00:01:09;;;;;;;57.53;43.47;;;1.80;99.90;;;;;;5059907;28;20181;-49
2023/04/09 00:03:35;;;;;;;59.22;43.92;;;1.70;99.90;;;;;;5059898;28;20176;-48
2023/04/09 00:06:02;;;;;;;59.40;44.70;;;1.70;99.90;;;;;;5058982;28;20208;-47
2023/04/09 00:08:27;;;;;;;59.75;43.45;;;1.60;99.90;;;;;;5058576;28;20635;-42
2023/04/09 00:10:53;;;;;;;53.17;41.87;;;1.60;99.90;;;;;;5059530;28;20173;-43
2023/04/09 00:13:19;;;;;;;61.42;44.63;;;1.60;99.90;;;;;;5059685;28;20213;-45
2023/04/09 00:15:46;;;;;;;58.83;43.40;;;1.60;99.90;;;;;;5058972;28;20719;-43
2023/04/09 00:18:13;;;;;;;55.33;43.30;;;1.50;99.90;;;;;;5040632;28;20450;-43
2023/04/09 00:20:38;;;;;;;56.38;43.30;;;1.50;99.90;;;;;;5059642;28;20188;-44
2023/04/09 00:23:04;;;;;;;54.47;41.50;;;1.40;99.90;;;;;;5059187;28;20236;-43
2023/04/09 00:25:30;;;;;;;58.97;42.50;;;1.50;99.90;;;;;;5059554;28;20200;-41
2023/04/09 00:27:56;;;;;;;54.73;42.77;;;1.50;99.90;;;;;;5058828;28;20224;-46
2023/04/09 00:30:22;;;;;;;61.80;44.50;;;1.40;99.90;;;;;;5059386;28;20216;-44
2023/04/09 00:32:48;;;;;;;59.07;42.80;;;1.40;99.90;;;;;;5059581;28;20543;-46
2023/04/09 00:35:13;;;;;;;58.83;43.53;;;1.40;99.90;;;;;;5059373;28;20220;-46
2023/04/09 00:37:39;;;;;;;53.93;41.00;;;1.30;99.90;;;;;;5057780;28;20435;-42
2023/04/09 00:40:05;;;;;;;57.10;43.17;;;1.30;99.90;;;;;;5059583;28;20658;-46
2023/04/09 00:42:33;;;;;;;64.72;44.67;;;1.30;99.90;;;;;;5059026;28;20185;-45
2023/04/09 00:44:59;;;;;;;62.45;43.30;;;1.40;99.90;;;;;;5058333;28;20197;-47
2023/04/09 00:47:27;;;;;;;66.28;46.40;;;1.30;99.90;;;;;;5059129;28;20186;-47
2023/04/09 00:49:53;;;;;;;56.85;43.75;;;1.40;99.90;;;;;;5058601;28;20268;-42
2023/04/09 00:52:20;;;;;;;58.80;46.80;;;1.40;99.90;;;;;;5059045;28;20192;-46
2023/04/09 00:54:50;;;;;;;64.57;45.38;;;1.50;99.90;;;;;;5059280;28;20248;-44
2023/04/09 00:57:16;;;;;;;63.10;45.20;;;1.50;99.90;;;;;;5059506;28;20173;-46
2023/04/09 00:59:42;;;;;;;66.40;45.85;;;1.50;99.90;;;;;;5058037;28;20189;-45
2023/04/09 01:02:08;;;;;;;59.38;43.78;;;1.50;99.90;;;;;;5057392;28;20188;-46
2023/04/09 01:04:35;;;;;;;67.27;47.20;;;1.60;99.90;;;;;;5059091;28;20647;-43
2023/04/09 01:07:07;;;;;;;65.80;46.60;;;1.60;99.90;;;;;;5058062;28;20181;-45
2023/04/09 01:09:49;;;;;;;60.95;45.25;;;1.70;99.90;;;;;;5057997;28;20185;-48
2023/04/09 01:12:53;;;;;;;64.07;46.53;;;1.70;99.90;;;;;;5058872;28;20204;-48
2023/04/09 01:15:26;;;;;;;69.60;49.22;;;1.80;99.90;;;;;;5058622;28;20266;-43
2023/04/09 01:18:00;;;;;;;63.58;47.97;;;1.80;99.90;;;;;;5058202;28;20189;-48
2023/04/09 01:20:32;;;;;;;65.32;48.83;;;1.90;99.90;;;;;;5058517;28;20648;-44
2023/04/09 01:23:12;;;;;;;62.83;48.42;;;1.80;99.90;;;;;;5058807;28;20225;-44
2023/04/09 01:25:50;;;;;;;62.50;47.72;;;1.80;99.90;;;;;;5059768;28;20185;-46
2023/04/09 01:28:26;;;;;;;63.50;47.85;;;1.90;99.90;;;;;;5057944;28;20181;-48
2023/04/09 01:30:59;;;;;;;64.68;48.00;;;1.90;99.90;;;;;;5059421;28;20500;-47
2023/04/09 01:33:28;;;;;;;61.42;47.00;;;1.90;99.90;;;;;;5057427;28;20187;-49
2023/04/09 01:35:55;;;;;;;67.40;48.05;;;1.90;99.90;;;;;;5058232;28;20209;-47
2023/04/09 01:38:21;;;;;;;57.90;44.22;;;1.90;99.90;;;;;;5058030;28;20165;-45
2023/04/09 01:40:49;;;;;;;65.22;47.65;;;1.90;99.90;;;;;;5057211;28;20200;-46
2023/04/09 01:43:15;;;;;;;59.35;45.20;;;1.80;99.90;;;;;;5057841;28;20220;-46
2023/04/09 01:45:44;;;;;;;59.55;46.38;;;1.80;99.90;;;;;;5058861;28;20192;-49
2023/04/09 01:48:11;;;;;;;60.60;46.25;;;1.80;99.90;;;;;;5057943;28;20652;-47
2023/04/09 01:50:36;;;;;;;58.25;45.75;;;1.80;99.90;;;;;;5058043;28;20193;-45
2023/04/09 01:53:03;;;;;;;63.17;45.83;;;1.80;99.90;;;;;;5058797;28;20185;-47
2023/04/09 01:55:28;;;;;;;61.47;46.08;;;1.70;99.90;;;;;;5060531;28;20209;-44
2023/04/09 01:57:54;;;;;;;59.50;46.40;;;1.80;99.90;;;;;;5061810;28;20259;-46
2023/04/09 02:00:20;;;;;;;61.83;45.73;;;1.80;99.90;;;;;;5062210;28;20199;-48
2023/04/09 02:03:00;;;;;;;60.00;45.00;;;1.70;99.90;;;;;;5062023;28;20702;-49
2023/04/09 02:05:30;;;;;;;63.20;43.88;;;1.70;99.90;;;;;;5061511;28;20430;-45
2023/04/09 02:08:00;;;;;;;62.65;46.60;;;1.70;99.90;;;;;;5061456;28;20224;-46
2023/04/09 02:10:52;;;;;;;62.00;44.95;;;1.70;99.90;;;;;;5061999;28;20553;-44
2023/04/09 02:13:18;;;;;;;61.10;42.75;;;1.70;99.90;;;;;;5046481;28;20202;-42
2023/04/09 02:15:45;;;;;;;61.00;44.80;;;1.70;99.90;;;;;;5061862;28;20299;-44
2023/04/09 02:18:28;;;;;;;60.05;44.40;;;1.70;99.90;;;;;;5061240;28;20211;-49
2023/04/09 02:20:55;;;;;;;57.13;43.10;;;1.70;99.90;;;;;;5062173;28;20612;-44
2023/04/09 02:23:21;;;;;;;61.75;44.67;;;1.60;99.90;;;;;;5060897;28;20221;-48
2023/04/09 02:25:46;;;;;;;60.58;46.05;;;1.60;99.90;;;;;;5061819;28;20778;-44
2023/04/09 02:28:12;;;;;;;59.20;44.30;;;1.60;99.90;;;;;;5061231;28;20255;-47
2023/04/09 02:30:38;;;;;;;59.90;44.30;;;1.60;99.90;;;;;;5061635;28;20193;-45
2023/04/09 02:33:04;;;;;;;52.80;42.53;;;1.60;99.90;;;;;;5062151;28;20181;-48
2023/04/09 02:35:29;;;;;;;58.40;45.00;;;1.60;99.90;;;;;;5058533;28;20321;-46
2023/04/09 02:37:55;;;;;;;59.40;44.33;;;1.60;99.90;;;;;;5060972;28;20438;-47
2023/04/09 02:40:20;;;;;;;59.70;45.30;;;1.60;99.90;;;;;;5061418;28;20644;-49
2023/04/09 02:42:46;;;;;;;60.67;44.43;;;1.60;99.90;;;;;;5061599;28;20193;-45
2023/04/09 02:45:12;;;;;;;57.87;45.07;;;1.60;99.90;;;;;;5061532;28;20259;-47
2023/04/09 02:47:37;;;;;;;61.70;44.53;;;1.50;99.90;;;;;;5060766;28;20669;-44
2023/04/09 02:50:04;;;;;;;62.23;45.43;;;1.50;99.90;;;;;;5060489;28;20598;-44
2023/04/09 02:52:30;;;;;;;54.70;42.85;;;1.50;99.90;;;;;;5061202;28;20256;-46
2023/04/09 02:54:56;;;;;;;57.40;44.30;;;1.50;99.90;;;;;;5061370;28;20276;-45
2023/04/09 02:57:21;;;;;;;59.40;43.40;;;1.50;99.90;;;;;;5060847;28;20193;-45
2023/04/09 02:59:47;;;;;;;59.37;44.30;;;1.50;99.90;;;;;;5061196;28;20260;-44
2023/04/09 03:02:12;;;;;;;58.90;43.87;;;1.50;99.90;;;;;;5061446;28;20181;-47
2023/04/09 03:04:38;;;;;;;61.03;43.17;;;1.60;99.90;;;;;;5060360;28;20199;-47
2023/04/09 03:07:04;;;;;;;56.90;44.73;;;1.50;99.90;;;;;;5058678;28;20189;-45
2023/04/09 03:09:29;;;;;;;56.73;43.53;;;1.50;99.90;;;;;;5060827;28;20185;-50
2023/04/09 03:11:56;;;;;;;52.10;42.90;;;1.50;99.90;;;;;;5061013;28;20177;-46
2023/04/09 03:14:22;;;;;;;58.58;44.67;;;1.50;99.90;;;;;;5043023;28;20271;-45
2023/04/09 03:16:48;;;;;;;61.65;44.95;;;1.50;99.90;;;;;;5059967;28;20217;-46
2023/04/09 03:19:13;;;;;;;56.60;43.53;;;1.50;99.90;;;;;;5060389;28;20185;-50
2023/04/09 03:21:39;;;;;;;60.37;45.53;;;1.60;99.90;;;;;;5060620;28;20185;-47
2023/04/09 03:24:05;;;;;;;56.53;41.30;;;1.60;99.90;;;;;;5060515;28;20185;-50
2023/04/09 03:26:35;;;;;;;55.20;42.67;;;1.60;99.90;;;;;;5060044;28;20968;-48
2023/04/09 03:29:01;;;;;;;55.78;43.55;;;1.60;99.90;;;;;;5060721;28;20267;-47
2023/04/09 03:31:27;;;;;;;55.10;43.40;;;1.60;99.90;;;;;;5060493;28;20686;-48
2023/04/09 03:33:52;;;;;;;57.80;44.50;;;1.60;99.90;;;;;;5060672;28;20292;-43
2023/04/09 03:36:18;;;;;;;64.83;43.63;;;1.70;99.90;;;;;;5058449;28;20248;-47
2023/04/09 03:38:44;;;;;;;59.83;44.43;;;1.70;99.90;;;;;;5060450;28;20251;-47
2023/04/09 03:41:09;;;;;;;56.70;41.70;;;1.70;99.90;;;;;;5060392;28;20204;-44
2023/04/09 03:43:35;;;;;;;55.90;41.67;;;1.70;99.90;;;;;;5059671;28;20624;-48
2023/04/09 03:46:00;;;;;;;55.73;43.47;;;1.70;99.90;;;;;;5059773;28;20318;-46
2023/04/09 03:48:26;;;;;;;55.40;40.90;;;1.80;99.90;;;;;;5060129;28;20647;-49
2023/04/09 03:50:52;;;;;;;61.67;42.40;;;1.80;99.90;;;;;;5060215;28;20639;-46
2023/04/09 03:53:18;;;;;;;57.60;43.28;;;1.90;99.90;;;;;;5060401;28;20189;-46
2023/04/09 03:55:43;;;;;;;55.27;42.13;;;1.90;99.90;;;;;;5059413;28;20494;-44
2023/04/09 03:58:10;;;;;;;56.60;43.53;;;1.90;99.90;;;;;;5060525;28;20245;-43
2023/04/09 04:00:35;;;;;;;61.10;44.85;;;1.90;99.90;;;;;;5058281;28;20647;-46
2023/04/09 04:03:01;;;;;;;59.43;43.67;;;1.90;99.90;;;;;;5059214;28;20182;-48
2023/04/09 04:05:27;;;;;;;59.57;44.47;;;1.90;99.90;;;;;;5058509;28;20196;-44
2023/04/09 04:07:52;;;;;;;58.00;43.23;;;2.00;99.90;;;;;;5059564;28;20634;-46
2023/04/09 04:10:18;;;;;;;59.77;43.97;;;2.00;99.90;;;;;;5059852;28;20264;-44
2023/04/09 04:12:44;;;;;;;53.93;42.77;;;2.00;99.90;;;;;;5060080;28;20193;-45
2023/04/09 04:15:10;;;;;;;55.60;44.33;;;2.00;99.90;;;;;;5059535;28;20455;-46
2023/04/09 04:17:35;;;;;;;54.40;42.57;;;2.00;99.90;;;;;;5058379;28;20797;-46
2023/04/09 04:20:01;;;;;;;55.73;42.80;;;2.00;99.90;;;;;;5059179;28;20450;-46
2023/04/09 04:22:27;;;;;;;57.50;45.10;;;2.00;99.90;;;;;;5059238;28;20705;-44
2023/04/09 04:24:52;;;;;;;56.40;42.43;;;2.00;99.90;;;;;;5059540;28;20185;-46
2023/04/09 04:27:18;;;;;;;56.33;42.97;;;2.00;99.90;;;;;;5058758;28;20220;-45
2023/04/09 04:29:43;;;;;;;57.83;44.47;;;2.10;99.90;;;;;;5059176;28;20197;-44
2023/04/09 04:32:09;;;;;;;53.77;42.53;;;2.10;99.90;;;;;;5060261;28;20256;-46
2023/04/09 04:34:34;;;;;;;56.63;45.40;;;2.10;99.90;;;;;;5039723;28;20185;-47
2023/04/09 04:37:00;;;;;;;54.30;44.87;;;2.10;99.90;;;;;;5058951;28;20205;-45
2023/04/09 04:39:26;;;;;;;56.93;44.50;;;2.10;99.90;;;;;;5058870;28;20628;-46
2023/04/09 04:41:51;;;;;;;51.87;43.33;;;2.10;99.90;;;;;;5059377;28;20177;-45
2023/04/09 04:44:17;;;;;;;58.00;43.97;;;2.10;99.90;;;;;;5041618;28;20185;-47
2023/04/09 04:46:42;;;;;;;57.43;44.17;;;2.20;99.90;;;;;;5059216;28;20181;-45
2023/04/09 04:49:08;;;;;;;53.73;44.37;;;2.20;99.90;;;;;;5059399;28;20242;-48
2023/04/09 04:51:33;;;;;;;58.50;43.10;;;2.20;99.90;;;;;;5059021;28;20204;-45
2023/04/09 04:53:59;;;;;;;53.60;43.40;;;2.20;99.90;;;;;;5059360;28;20246;-44
2023/04/09 04:56:25;;;;;;;58.30;43.97;;;2.30;99.90;;;;;;5059238;28;20750;-43
2023/04/09 04:58:50;;;;;;;57.80;44.80;;;2.30;99.90;;;;;;5058772;28;20662;-48
2023/04/09 05:01:16;;;;;;;54.77;44.10;;;2.40;99.90;;;;;;5057678;28;20359;-42
2023/04/09 05:03:41;;;;;;;55.57;42.90;;;2.40;99.90;;;;;;5059151;28;20200;-43
2023/04/09 05:06:07;;;;;;;53.53;42.47;;;2.50;99.90;;;;;;5059557;28;21033;-43
2023/04/09 05:08:33;;;;;;;53.40;43.30;;;2.60;99.90;;;;;;5057892;28;20246;-44
2023/04/09 05:10:59;;;;;;;53.90;42.63;;;2.60;99.90;;;;;;5056414;28;20201;-47
2023/04/09 05:13:24;;;;;;;53.80;42.53;;;2.70;99.90;;;;;;5057911;28;20519;-49
2023/04/09 05:15:50;;;;;;;51.87;42.90;;;2.70;99.90;;;;;;5058951;28;20287;-49
2023/04/09 05:18:16;;;;;;;53.23;41.63;;;2.80;99.90;;;;;;5059355;28;20187;-47
2023/04/09 05:20:41;;;;;;;56.70;43.87;;;2.80;99.90;;;;;;5058766;28;20193;-44
2023/04/09 05:23:09;;;;;;;53.90;42.43;;;2.90;99.90;;;;;;5058333;28;20233;-48
2023/04/09 05:25:34;;;;;;;57.28;42.10;;;2.90;99.90;;;;;;5059448;28;20193;-50
2023/04/09 05:28:00;;;;;;;55.63;42.83;;;2.80;99.90;;;;;;5058931;28;20193;-47
2023/04/09 05:30:25;;;;;;;53.90;42.20;;;2.90;99.90;;;;;;5060221;28;20192;-43
2023/04/09 05:32:51;;;;;;;50.33;39.90;;;2.90;99.90;;;;;;5062501;28;20726;-45
2023/04/09 05:35:17;;;;;;;52.00;42.40;;;3.00;99.90;;;;;;5063470;28;20209;-44
2023/04/09 05:37:42;;;;;;;50.90;39.73;;;3.00;99.90;;;;;;5062762;28;20185;-47
2023/04/09 05:40:09;;;;;;;50.90;42.03;;;3.00;99.90;;;;;;5061978;28;20192;-45
2023/04/09 05:42:35;;;;;;;49.10;40.90;;;3.00;99.90;;;;;;5062726;28;20185;-46
2023/04/09 05:45:00;;;;;;;54.37;43.13;;;3.10;99.90;;;;;;5061635;28;20185;-46
2023/04/09 05:47:26;;;;;;;56.13;43.97;;;3.10;99.90;;;;;;5062945;28;20663;-45
2023/04/09 05:49:52;;;;;;;53.70;41.83;;;3.10;99.90;;;;;;5043955;28;21012;-46
2023/04/09 05:52:18;;;;;;;53.80;41.23;;;3.20;99.90;;;;;;5061331;28;21116;-45
2023/04/09 05:54:44;;;;;;;55.15;43.75;;;3.10;99.90;;;;;;5061604;28;20640;-46
2023/04/09 05:57:10;;;;;;;50.23;40.07;;;3.00;99.90;;;;;;5061613;28;20239;-45
2023/04/09 05:59:35;;;;;;;49.00;40.97;;;3.00;99.90;;;;;;5061042;28;20541;-49
2023/04/09 06:02:01;;;;;;;51.23;41.27;;;3.10;99.90;;;;;;5062150;28;20962;-46
2023/04/09 06:04:27;;;;;;;46.53;39.63;;;3.10;99.90;;;;;;5060181;28;20177;-48
2023/04/09 06:06:52;;;;;;;48.67;38.80;;;3.20;99.90;;;;;;5062148;28;20415;-46
2023/04/09 06:09:18;;;;;;;49.00;39.17;;;3.20;99.90;;;;;;5061086;28;20220;-44
2023/04/09 06:11:43;;;;;;;50.80;41.77;;;3.30;99.90;;;;;;5061821;28;20182;-47
2023/04/09 06:14:11;;;;;;;49.20;39.93;;;3.40;99.90;;;;;;5061199;28;20235;-44
2023/04/09 06:16:36;;;;;;;49.40;40.97;;;3.40;99.90;;;;;;5060007;28;20519;-46
2023/04/09 06:19:02;;;;;;;50.97;41.00;;;3.50;99.90;;;;;;5061629;28;20203;-45
2023/04/09 06:21:27;;;;;;;47.10;39.00;;;3.50;99.90;;;;;;5061373;28;20612;-49
2023/04/09 06:23:53;;;;;;;48.73;40.80;;;3.60;99.90;;;;;;5059357;28;20225;-47
2023/04/09 06:26:19;;;;;;;46.43;40.10;;;3.60;99.90;;;;;;5059627;28;20216;-45
2023/04/09 06:28:44;;;;;;;47.23;38.90;;;3.70;99.90;;;;;;5059054;28;20854;-46
2023/04/09 06:31:10;;;;;;;49.80;40.90;;;3.70;99.90;;;;;;5056778;28;20189;-45
2023/04/09 06:33:35;;;;;;;49.70;42.27;;;3.80;99.90;;;;;;5059837;28;20272;-45
2023/04/09 06:36:01;;;;;;;49.27;40.57;;;3.90;99.90;;;;;;5059014;28;20205;-45
2023/04/09 06:38:27;;;;;;;47.60;39.57;;;4.00;99.90;;;;;;5061732;28;20252;-44
2023/04/09 06:40:54;;;;;;;45.33;40.43;;;4.00;99.90;;;;;;5060268;28;20955;-44
2023/04/09 06:43:20;;;;;;;47.28;39.20;;;4.10;99.90;;;;;;5060443;28;20185;-46
2023/04/09 06:45:46;;;;;;;48.60;41.83;;;4.20;99.90;;;;;;5040551;28;20247;-45
2023/04/09 06:48:11;;;;;;;45.40;38.20;;;4.20;99.90;;;;;;5060877;28;20209;-46
2023/04/09 06:50:37;;;;;;;44.30;39.27;;;4.30;99.90;;;;;;5061707;28;20220;-48
2023/04/09 06:53:03;;;;;;;45.10;39.80;;;4.30;99.90;;;;;;5051509;28;20185;-45
2023/04/09 06:55:28;;;;;;;48.77;38.00;;;4.40;99.90;;;;;;5060560;28;20208;-44
2023/04/09 06:57:54;;;;;;;45.67;38.43;;;4.50;99.90;;;;;;5062332;28;20252;-45
2023/04/09 07:00:21;;;;;;;41.53;37.00;;;4.60;99.90;;;;;;5060977;28;20654;-48
2023/04/09 07:02:47;;;;;;;42.65;37.65;;;4.70;99.90;;;;;;5061762;28;20185;-47
2023/04/09 07:05:13;;;;;;;45.27;38.67;;;4.80;99.90;;;;;;5061604;28;20190;-45
2023/04/09 07:07:38;;;;;;;42.23;37.53;;;4.90;99.90;;;;;;5061567;28;20495;-46
2023/04/09 07:10:05;;;;;;;43.67;37.17;;;5.10;99.90;;;;;;5062105;28;20625;-47
2023/04/09 07:12:34;;;;;;;43.45;38.60;;;5.20;99.90;;;;;;5061375;28;20268;-46
2023/04/09 07:15:04;;;;;;;42.85;38.17;;;5.30;99.90;;;;;;5061141;28;20281;-46
2023/04/09 07:17:31;;;;;;;43.88;38.30;;;5.40;99.90;;;;;;5061615;28;20187;-47
2023/04/09 07:19:57;;;;;;;43.55;38.40;;;5.50;99.90;;;;;;5061551;28;20192;-49
2023/04/09 07:22:25;;;;;;;43.80;39.00;;;5.60;99.90;;;;;;5059682;28;20224;-48
2023/04/09 07:24:54;;;;;;;43.92;39.13;;;5.70;99.90;;;;;;5060602;28;20408;-45
2023/04/09 07:27:26;;;;;;;43.75;39.15;;;5.90;99.90;;;;;;5061957;28;20549;-46
2023/04/09 07:29:56;;;;;;;44.03;39.25;;;6.00;99.90;;;;;;5061016;28;20292;-46
2023/04/09 07:32:23;;;;;;;44.75;39.95;;;6.10;99.90;;;;;;5058269;28;20490;-48
2023/04/09 07:34:53;;;;;;;42.10;37.70;;;6.20;99.90;;;;;;5060585;28;20516;-46
2023/04/09 07:37:19;;;;;;;41.60;37.10;;;6.30;99.90;;;;;;5060084;28;20425;-47
2023/04/09 07:39:45;;;;;;;41.90;37.27;;;6.30;99.90;;;;;;5059863;28;20163;-47
2023/04/09 07:42:11;;;;;;;40.07;35.87;;;6.40;99.90;;;;;;5060162;28;21540;-45
2023/04/09 07:44:37;;;;;;;41.27;36.53;;;6.50;99.90;;;;;;5059601;28;20490;-48
2023/04/09 07:47:04;;;;;;;42.80;38.30;;;6.70;99.90;;;;;;5060064;28;20448;-44
2023/04/09 07:49:30;;;;;;;42.63;38.33;;;6.80;99.90;;;;;;5059330;28;20448;-50
2023/04/09 07:51:56;;;;;;;43.47;38.87;;;6.90;99.90;;;;;;5060147;28;20816;-48
2023/04/09 07:54:22;;;;;;;43.33;38.70;;;7.10;99.90;;;;;;5060112;28;20882;-46
2023/04/09 07:56:48;;;;;;;42.03;37.63;;;7.10;99.90;;;;;;5059999;28;20466;-47
2023/04/09 07:59:16;;;;;;;40.83;36.53;;;7.30;99.90;;;;;;5058912;28;20224;-52
2023/04/09 08:01:42;;;;;;;41.23;36.93;;;7.50;99.90;;;;;;5060385;28;20247;-48
2023/04/09 08:04:08;;;;;;;40.87;36.47;;;7.80;99.90;;;;;;5059122;28;20526;-50
2023/04/09 08:06:35;;;;;;;41.37;37.27;;;8.10;99.90;;;;;;5057630;28;20501;-43
2023/04/09 08:09:01;;;;;;;38.80;34.90;;;8.40;99.90;;;;;;5059712;28;20986;-44
2023/04/09 08:11:26;;;;;;;39.00;35.00;;;8.50;99.90;;;;;;5060621;28;20502;-48
2023/04/09 08:13:52;;;;;;;38.03;34.30;;;8.70;99.90;;;;;;5058523;28;20431;-49
2023/04/09 08:16:18;;;;;;;35.90;32.37;;;9.00;99.90;;;;;;5058829;28;20194;-45
2023/04/09 08:18:44;;;;;;;40.03;35.97;;;9.20;99.90;;;;;;5060083;28;20425;-45
2023/04/09 08:21:10;;;;;;;36.90;33.20;;;9.40;99.90;;;;;;5058929;28;20437;-45
2023/04/09 08:23:36;;;;;;;38.13;34.33;;;9.60;99.90;;;;;;5058617;28;20472;-49
2023/04/09 08:26:02;;;;;;;38.73;34.93;;;9.80;99.90;;;;;;5059865;28;20265;-50
2023/04/09 08:28:28;;;;;;;39.97;35.97;;;9.90;99.90;;;;;;5059281;28;20442;-45
2023/04/09 08:30:53;;;;;;;39.40;35.60;;;10.10;99.90;;;;;;5059308;28;20184;-49
2023/04/09 08:33:19;;;;;;;38.73;35.00;;;10.20;99.90;;;;;;5060079;28;20191;-47
2023/04/09 08:35:44;;;;;;;38.07;34.37;;;10.40;99.90;;;;;;5059957;28;20336;-48
2023/04/09 08:38:10;;;;;;;38.80;35.30;;;10.50;99.90;;;;;;5059891;28;20183;-50
2023/04/09 08:40:36;;;;;;;39.77;35.93;;;10.60;99.90;;;;;;5041942;28;20192;-47
2023/04/09 08:43:06;;;;;;;40.57;36.70;;;10.60;99.90;;;;;;5059807;28;20884;-46
2023/04/09 08:45:32;;;;;;;39.43;35.83;;;10.80;99.90;;;;;;5057861;28;20468;-48
2023/04/09 08:48:02;;;;;;;39.10;35.40;;;11.00;99.90;;;;;;5060209;28;20905;-47
2023/04/09 08:50:32;;;;;;;39.67;35.77;;;11.30;99.90;;;;;;5059770;28;20185;-45
2023/04/09 08:53:03;;;;;;;39.93;36.23;;;11.80;99.00;;;;;;5059176;28;20514;-48
2023/04/09 08:55:30;;;;;;;40.30;36.60;;;12.20;94.10;;;;;;5059717;28;20512;-48
2023/04/09 08:57:57;;;;;;;40.57;36.77;;;12.60;94.20;;;;;;5059286;28;20844;-45
2023/04/09 09:00:22;;;;;;;39.47;35.80;;;13.00;93.30;;;;;;5059380;28;20522;-45
2023/04/09 09:03:08;;;;;;;38.90;35.57;;;13.30;92.40;;;;;;5059309;28;20544;-45
2023/04/09 09:05:42;;;;;;;39.20;35.53;;;13.80;91.60;;;;;;5058905;28;20435;-47
2023/04/09 09:08:13;;;;;;;40.20;36.60;;;14.30;87.30;;;;;;5062997;28;21452;-51
2023/04/09 09:10:45;;;;;;;40.17;36.67;;;14.90;84.90;;;;;;5046158;28;20546;-49
2023/04/09 09:13:26;;;;;;;37.43;34.23;;;15.20;79.60;;;;;;5062874;28;20423;-46
2023/04/09 09:15:55;;;;;;;40.50;36.93;;;15.60;74.00;;;;;;5045807;28;20516;-50
2023/04/09 09:18:42;;;;;;;40.10;36.67;;;15.80;68.40;;;;;;5046267;28;20741;-46
2023/04/09 09:21:16;;;;;;;39.03;35.83;;;16.00;68.20;;;;;;5064327;28;20455;-49
2023/04/09 09:23:43;;;;;;;39.37;36.07;;;16.30;63.80;;;;;;5062270;28;20897;-48
2023/04/09 09:26:27;;;;;;;39.80;36.47;;;16.40;58.90;;;;;;5062404;28;20890;-46
2023/04/09 09:28:54;;;;;;;39.43;36.00;;;16.60;60.60;;;;;;5063269;28;20528;-47
2023/04/09 09:31:21;;;;;;;38.13;34.83;;;16.60;57.50;;;;;;5063226;28;20431;-47
2023/04/09 09:33:47;;;;;;;38.80;35.60;;;16.30;58.50;;;;;;5063174;28;20442;-49
2023/04/09 09:36:15;;;;;;;38.90;35.50;;;16.40;58.00;;;;;;5060802;28;20463;-46
2023/04/09 09:38:55;;;;;;;38.73;35.37;;;16.70;58.80;;;;;;5061877;28;20466;-49
2023/04/09 09:41:22;;;;;;;37.83;34.63;;;16.50;56.90;;;;;;5043797;28;20548;-49
2023/04/09 09:43:48;;;;;;;37.23;33.83;;;16.80;60.00;;;;;;5062430;28;20435;-46
2023/04/09 09:46:15;;;;;;;38.47;35.30;;;17.20;56.70;;;;;;5062088;28;20474;-51
2023/04/09 09:48:41;;;;;;;37.80;34.67;;;16.80;54.20;;;;;;5062790;28;20650;-48
2023/04/09 09:51:09;;;;;;;38.67;35.43;;;16.50;55.90;;;;;;5063170;28;20887;-49
2023/04/09 09:53:36;;;;;;;38.37;35.17;;;16.60;55.90;;;;;;5063523;28;20437;-50
2023/04/09 09:56:05;;;;;;;39.30;36.00;;;16.70;56.10;;;;;;5062185;28;20521;-51
2023/04/09 09:58:42;;;;;;;37.90;34.80;;;16.20;56.20;;;;;;5062464;28;20481;-49
2023/04/09 10:01:11;;;;;;;37.87;34.67;;;16.60;56.30;;;;;;5062604;28;20963;-47
2023/04/09 10:03:39;;;;;;;39.43;36.17;;;17.00;57.20;;;;;;5063170;28;20411;-50
2023/04/09 10:06:06;;;;;;;38.97;35.77;;;17.40;54.30;;;;;;5062739;28;20740;-46
2023/04/09 10:08:34;;;;;;;40.57;37.17;;;17.40;53.60;;;;;;5061683;28;20423;-48
2023/04/09 10:11:00;;;;;;;38.07;34.97;;;17.60;55.10;;;;;;5058705;28;20450;-48
2023/04/09 10:13:50;;;;;;;37.17;34.13;;;17.60;55.10;;;;;;5059579;28;20442;-45
2023/04/09 10:16:17;;;;;;;39.10;36.00;;;17.90;55.00;;;;;;5057655;28;20463;-48
2023/04/09 10:18:43;;;;;;;35.40;32.60;;;18.10;53.60;;;;;;5061615;28;20449;-47
2023/04/09 10:21:22;;;;;;;38.47;35.17;;;18.30;52.90;;;;;;5061568;28;20418;-48
2023/04/09 10:23:49;;;;;;;38.70;35.40;;;18.30;52.60;;;;;;5061777;28;20968;-47
2023/04/09 10:26:17;;;;;;;38.17;35.17;;;18.00;52.70;;;;;;5061782;28;20452;-48
2023/04/09 10:28:43;;;;;;;37.43;34.50;;;17.80;54.10;;;;;;5061672;28;20835;-50
2023/04/09 10:31:09;;;;;;;37.83;34.83;;;17.60;53.30;;;;;;5061978;28;20423;-47
2023/04/09 10:33:37;;;;;;;37.53;34.43;;;17.50;53.80;;;;;;5061668;28;20714;-46
2023/04/09 10:36:08;;;;;;;39.90;36.50;;;17.30;55.10;;;;;;5061267;28;20312;-51
2023/04/09 10:38:54;;;;;;;36.83;33.87;;;17.20;54.30;;;;;;5043634;28;20431;-46
2023/04/09 10:41:39;;;;;;;34.67;31.77;;;17.00;56.10;;;;;;5061107;28;20431;-46
2023/04/09 10:44:27;;;;;;;35.23;32.30;;;16.70;54.80;;;;;;5061583;28;21013;-44
2023/04/09 10:46:56;;;;;;;35.33;32.33;;;16.30;55.60;;;;;;5061538;28;20418;-45
2023/04/09 10:49:24;;;;;;;35.83;32.73;;;16.20;55.50;;;;;;5061593;28;20450;-45
2023/04/09 10:52:04;;;;;;;35.17;32.17;;;16.20;57.30;;;;;;5061611;28;20419;-45
2023/04/09 10:54:33;;;;;;;36.63;33.70;;;15.90;57.20;;;;;;5042618;28;20435;-47
2023/04/09 10:57:08;;;;;;;36.20;33.10;;;16.00;56.40;;;;;;5060072;28;20961;-48
2023/04/09 10:59:42;;;;;;;37.73;34.53;;;16.10;58.20;;;;;;5060198;28;20507;-47
2023/04/09 11:02:22;;;;;;;38.07;34.70;;;15.80;57.30;;;;;;5042792;28;20859;-48
2023/04/09 11:05:18;;;;;;;36.47;33.03;;;15.90;57.40;;;;;;5060641;28;20431;-50
2023/04/09 11:08:10;;;;;;;36.70;33.60;;;16.20;57.70;;;;;;5060024;28;20780;-44
2023/04/09 11:10:43;;;;;;;37.23;34.10;;;16.50;56.80;;;;;;5059391;28;20439;-47
2023/04/09 11:13:13;;;;;;;36.83;33.73;;;16.30;54.30;;;;;;5059417;28;20459;-46
2023/04/09 11:15:39;;;;;;;37.47;34.27;;;16.30;54.70;;;;;;5059823;28;20508;-47
2023/04/09 11:18:12;;;;;;;36.30;33.20;;;16.70;55.90;;;;;;5059985;28;20530;-49
2023/04/09 11:20:39;;;;;;;36.73;33.47;;;17.10;54.80;;;;;;5060109;28;21092;-48
2023/04/09 11:23:05;;;;;;;37.83;34.63;;;17.40;51.40;;;;;;5058169;28;20890;-48
2023/04/09 11:25:32;;;;;;;38.43;35.23;;;17.40;51.60;;;;;;5060745;28;20977;-44
2023/04/09 11:28:01;;;;;;;37.17;34.03;;;17.40;52.20;;;;;;5059475;28;21383;-44
2023/04/09 11:30:27;;;;;;;36.73;33.70;;;17.40;51.50;;;;;;5060581;28;20926;-47
2023/04/09 11:32:53;;;;;;;34.20;31.33;;;17.40;50.60;;;;;;5060167;28;20504;-48
2023/04/09 11:35:21;;;;;;;37.37;34.30;;;17.40;50.80;;;;;;5060652;28;21036;-51
2023/04/09 11:37:48;;;;;;;37.03;33.93;;;17.20;51.10;;;;;;5059892;28;20238;-47
2023/04/09 11:40:20;;;;;;;37.33;34.33;;;17.10;52.20;;;;;;5060084;28;20427;-45
2023/04/09 11:42:49;;;;;;;37.00;33.90;;;17.50;52.40;;;;;;5059041;28;20429;-48
2023/04/09 11:45:16;;;;;;;36.80;33.80;;;17.80;50.80;;;;;;5059039;28;20427;-48
2023/04/09 11:47:43;;;;;;;36.17;33.17;;;18.10;49.70;;;;;;5059504;28;20443;-45
2023/04/09 11:50:11;;;;;;;37.70;34.57;;;18.70;49.70;;;;;;5059535;28;20439;-46
2023/04/09 11:52:37;;;;;;;36.27;33.37;;;19.00;49.70;;;;;;5059450;28;20847;-42
2023/04/09 11:55:06;;;;;;;37.67;34.63;;;19.20;49.60;;;;;;5058447;28;21008;-46
2023/04/09 11:57:43;;;;;;;37.20;34.20;;;19.40;47.10;;;;;;5058933;28;20689;-46
2023/04/09 12:00:16;;;;;;;37.80;34.70;;;18.90;46.20;;;;;;5060162;28;20905;-47
2023/04/09 12:02:48;;;;;;;33.93;31.23;;;18.60;46.40;;;;;;5059449;28;20835;-47
2023/04/09 12:05:21;;;;;;;34.87;31.90;;;19.30;48.10;;;;;;5059398;28;20514;-47
2023/04/09 12:07:47;;;;;;;35.63;32.83;;;19.40;47.10;;;;;;5059865;28;20420;-50
2023/04/09 12:10:13;;;;;;;35.77;32.87;;;19.50;46.40;;;;;;5057710;28;20442;-47
2023/04/09 12:12:44;;;;;;;36.30;33.27;;;19.30;46.00;;;;;;5058470;28;20193;-46
2023/04/09 12:15:17;;;;;;;37.33;34.43;;;19.10;44.70;;;;;;5058171;28;20568;-44
2023/04/09 12:17:45;;;;;;;36.00;33.20;;;18.80;45.00;;;;;;5058886;28;20466;-46
2023/04/09 12:20:11;;;;;;;35.00;32.20;;;18.80;45.60;;;;;;5058812;28;20434;-47
2023/04/09 12:22:39;;;;;;;33.70;30.90;;;18.50;45.80;;;;;;5057770;28;20913;-47
2023/04/09 12:25:06;;;;;;;32.27;29.77;;;18.60;47.60;;;;;;5059049;28;20212;-44
2023/04/09 12:27:32;;;;;;;29.87;27.73;;;18.50;47.50;;;;;;5058992;28;20430;-44
2023/04/09 12:29:57;;;;;;;27.77;25.67;;;18.60;47.70;;;;;;5059768;28;20724;-48
2023/04/09 12:32:23;;;;;;;29.57;27.37;;;18.60;46.70;;;;;;5058979;28;20331;-48
2023/04/09 12:34:48;;;;;;;30.93;28.43;;;18.20;44.20;;;;;;5058994;28;20208;-44
2023/04/09 12:37:14;;;;;;;29.13;26.83;;;17.80;44.50;;;;;;5056777;28;20732;-48